EGPE Airport Information

Runway Information
Runway 05 Length 6191 ft width 151 ft Elevation 30 ft Threshold 217 ft Heading 49
Runway 23 Length 6191 ft Width 151 ft Elevation 21 ft Threshold N/A Heading 229
Runway 11 Length 2297 ft width 59 ft Elevation 31 ft Threshold N/A Heading 110
Runway 29 Length 2297 ft Width 59 ft Elevation 25 ft Threshold N/A Heading 290
Airport Frequencies
Type APP Name APP Frequency 122.6 MHZ
Type ATIS Name ATIS Frequency 109.2 MHZ
Type RDR Name RDR Frequency 119.35 MHZ
Type TWR Name TWR Frequency 122.6 MHZ
Airport Navaids
Type VOR-DME Name Inverness Frequency 109200 KHZ
Type NDB Name Inverness Frequency 328 KHZ
Airport Weather Information & NOTAM
ADDS - METARS form results

(1216 UTC 30 January 2023)
Data provider http://aviationweather.gov/metar/data/
 
METAR text: EGPE 301150Z 25008KT 9999 FEW028 07/03 Q1019
Conditions at: EGPE (INVERNESS/DALCRO, GB) observed 1150 UTC 30 January 2023
Temperature: 7.0°C (45°F)
Dewpoint: 3.0°C (37°F) [RH = 76%]
Pressure (altimeter): 30.09 inches Hg (1019.0 mb)
Winds: from the WSW (250 degrees) at 9 MPH (8 knots; 4.1 m/s)
Visibility: 6 or more miles (10+ km)
Ceiling: at least 12,000 feet AGL
Clouds: few clouds at 2800 feet AGL
Weather: no significant weather observed at this time

METAR text: EGPE 301120Z 27012KT 9999 FEW030 07/02 Q1018
Conditions at: EGPE (INVERNESS/DALCRO, GB) observed 1120 UTC 30 January 2023
Temperature: 7.0°C (45°F)
Dewpoint: 2.0°C (36°F) [RH = 70%]
Pressure (altimeter): 30.06 inches Hg (1018.0 mb)
Winds: from the W (270 degrees) at 14 MPH (12 knots; 6.2 m/s)
Visibility: 6 or more miles (10+ km)
Ceiling: at least 12,000 feet AGL
Clouds: few clouds at 3000 feet AGL
Weather: no significant weather observed at this time

Forecast for: EGPE (INVERNESS/DALCRO, GB)
Text: TAF EGPE 301101Z 3012/3021 26012KT 9999 FEW030
Forecast period: 1200 to 2100 UTC 30 January 2023
Forecast type: FROM: standard forecast or significant change
Winds: from the W (260 degrees) at 14 MPH (12 knots; 6.2 m/s)
Visibility: 6 or more miles (10+ km)
Ceiling: at least 12,000 feet AGL
Clouds: few clouds at 3000 feet AGL
Weather: no significant weather forecast for this period
Text: PROB40
Forecast period: 1900 to 2100 UTC 30 January 2023
Forecast type: TEMPORARY: The following changes expected for less than half the time period
Winds: from the WSW (250 degrees) at 17 MPH (15 knots; 7.7 m/s)
gusting to 29 MPH (25 knots; 12.9 m/s)
Visibility: 5 miles (8 km)
Ceiling: 1200 feet AGL
Clouds: broken clouds at 1200 feet AGL
Weather: -RA  (light rain)